sensor_id;sensor_type;location;lat;lon;timestamp;temperature;humidity
17381;DHT22;8808;52.478;13.378;2022-09-21T00:01:28;9.00;99.90
17381;DHT22;8808;52.478;13.378;2022-09-21T00:03:57;9.00;99.90
17381;DHT22;8808;52.478;13.378;2022-09-21T00:06:25;9.00;99.90
17381;DHT22;8808;52.478;13.378;2022-09-21T00:08:53;8.90;99.90
17381;DHT22;8808;52.478;13.378;2022-09-21T00:11:23;9.00;99.90
17381;DHT22;8808;52.478;13.378;2022-09-21T00:13:51;9.10;99.90
17381;DHT22;8808;52.478;13.378;2022-09-21T00:16:19;9.10;99.90
17381;DHT22;8808;52.478;13.378;2022-09-21T00:18:46;9.00;99.90
17381;DHT22;8808;52.478;13.378;2022-09-21T00:26:12;9.20;99.90
17381;DHT22;8808;52.478;13.378;2022-09-21T00:43:28;9.20;99.90
17381;DHT22;8808;52.478;13.378;2022-09-21T00:45:59;9.30;99.90
17381;DHT22;8808;52.478;13.378;2022-09-21T00:48:27;9.30;99.90
17381;DHT22;8808;52.478;13.378;2022-09-21T00:50:58;9.30;99.90
17381;DHT22;8808;52.478;13.378;2022-09-21T00:53:27;9.30;99.90
17381;DHT22;8808;52.478;13.378;2022-09-21T00:55:56;9.20;99.90
17381;DHT22;8808;52.478;13.378;2022-09-21T01:03:30;9.30;99.90
17381;DHT22;8808;52.478;13.378;2022-09-21T01:05:57;9.30;99.90
17381;DHT22;8808;52.478;13.378;2022-09-21T01:08:25;9.30;99.90
17381;DHT22;8808;52.478;13.378;2022-09-21T01:11:22;9.20;99.90
17381;DHT22;8808;52.478;13.378;2022-09-21T01:17:01;9.20;99.90
17381;DHT22;8808;52.478;13.378;2022-09-21T01:22:36;9.20;99.90
17381;DHT22;8808;52.478;13.378;2022-09-21T01:25:18;9.30;99.90
17381;DHT22;8808;52.478;13.378;2022-09-21T01:27:56;9.30;99.90
17381;DHT22;8808;52.478;13.378;2022-09-21T01:30:29;9.30;99.90
17381;DHT22;8808;52.478;13.378;2022-09-21T01:33:02;9.30;99.90
17381;DHT22;8808;52.478;13.378;2022-09-21T01:35:32;9.20;99.90
17381;DHT22;8808;52.478;13.378;2022-09-21T01:38:03;9.20;99.90
17381;DHT22;8808;52.478;13.378;2022-09-21T01:40:33;9.10;99.90
17381;DHT22;8808;52.478;13.378;2022-09-21T01:43:04;9.10;99.90
17381;DHT22;8808;52.478;13.378;2022-09-21T01:45:36;9.20;99.90
17381;DHT22;8808;52.478;13.378;2022-09-21T01:48:06;9.10;99.90
17381;DHT22;8808;52.478;13.378;2022-09-21T01:50:37;9.30;99.90
17381;DHT22;8808;52.478;13.378;2022-09-21T01:53:09;9.10;99.90
17381;DHT22;8808;52.478;13.378;2022-09-21T01:55:40;9.20;99.90
17381;DHT22;8808;52.478;13.378;2022-09-21T01:58:11;9.20;99.90
17381;DHT22;8808;52.478;13.378;2022-09-21T02:00:44;9.00;99.90
17381;DHT22;8808;52.478;13.378;2022-09-21T02:03:18;8.90;99.90
17381;DHT22;8808;52.478;13.378;2022-09-21T02:05:47;8.90;99.90
17381;DHT22;8808;52.478;13.378;2022-09-21T02:28:28;8.60;99.90
17381;DHT22;8808;52.478;13.378;2022-09-21T02:31:08;8.50;99.90
17381;DHT22;8808;52.478;13.378;2022-09-21T02:33:42;8.50;99.90
17381;DHT22;8808;52.478;13.378;2022-09-21T02:36:18;8.40;99.90
17381;DHT22;8808;52.478;13.378;2022-09-21T02:38:50;8.50;99.90
17381;DHT22;8808;52.478;13.378;2022-09-21T02:41:23;8.50;99.90
17381;DHT22;8808;52.478;13.378;2022-09-21T02:43:57;8.40;99.90
17381;DHT22;8808;52.478;13.378;2022-09-21T02:46:29;8.40;99.90
17381;DHT22;8808;52.478;13.378;2022-09-21T02:49:02;8.40;99.90
17381;DHT22;8808;52.478;13.378;2022-09-21T02:51:33;8.40;99.90
17381;DHT22;8808;52.478;13.378;2022-09-21T02:54:03;8.60;99.90
17381;DHT22;8808;52.478;13.378;2022-09-21T03:01:31;8.60;99.90
17381;DHT22;8808;52.478;13.378;2022-09-21T03:03:58;8.60;99.90
17381;DHT22;8808;52.478;13.378;2022-09-21T03:06:25;8.60;99.90
17381;DHT22;8808;52.478;13.378;2022-09-21T03:08:52;8.80;99.90
17381;DHT22;8808;52.478;13.378;2022-09-21T03:11:19;8.90;99.90
17381;DHT22;8808;52.478;13.378;2022-09-21T03:13:46;9.00;99.90
17381;DHT22;8808;52.478;13.378;2022-09-21T03:16:13;9.00;99.90
17381;DHT22;8808;52.478;13.378;2022-09-21T03:18:42;8.90;99.90
17381;DHT22;8808;52.478;13.378;2022-09-21T03:21:09;8.90;99.90
17381;DHT22;8808;52.478;13.378;2022-09-21T03:23:36;8.90;99.90
17381;DHT22;8808;52.478;13.378;2022-09-21T03:26:03;9.00;99.90
17381;DHT22;8808;52.478;13.378;2022-09-21T03:28:30;8.90;99.90
17381;DHT22;8808;52.478;13.378;2022-09-21T03:30:57;8.80;99.90
17381;DHT22;8808;52.478;13.378;2022-09-21T03:33:24;8.80;99.90
17381;DHT22;8808;52.478;13.378;2022-09-21T03:35:52;8.90;99.90
17381;DHT22;8808;52.478;13.378;2022-09-21T03:38:19;8.90;99.90
17381;DHT22;8808;52.478;13.378;2022-09-21T03:40:48;8.80;99.90
17381;DHT22;8808;52.478;13.378;2022-09-21T03:43:15;8.70;99.90
17381;DHT22;8808;52.478;13.378;2022-09-21T03:45:43;8.80;99.90
17381;DHT22;8808;52.478;13.378;2022-09-21T03:48:11;8.80;99.90
17381;DHT22;8808;52.478;13.378;2022-09-21T03:53:08;8.70;99.90
17381;DHT22;8808;52.478;13.378;2022-09-21T03:55:36;8.50;99.90
17381;DHT22;8808;52.478;13.378;2022-09-21T03:58:03;8.60;99.90
17381;DHT22;8808;52.478;13.378;2022-09-21T04:00:30;8.60;99.90
17381;DHT22;8808;52.478;13.378;2022-09-21T04:02:57;8.60;99.90
17381;DHT22;8808;52.478;13.378;2022-09-21T04:05:25;8.60;99.90
17381;DHT22;8808;52.478;13.378;2022-09-21T04:07:53;8.60;99.90
17381;DHT22;8808;52.478;13.378;2022-09-21T04:10:23;8.40;99.90
17381;DHT22;8808;52.478;13.378;2022-09-21T04:12:58;8.50;99.90
17381;DHT22;8808;52.478;13.378;2022-09-21T04:15:27;8.50;99.90
17381;DHT22;8808;52.478;13.378;2022-09-21T04:17:54;8.50;99.90
17381;DHT22;8808;52.478;13.378;2022-09-21T04:20:22;8.40;99.90
17381;DHT22;8808;52.478;13.378;2022-09-21T04:22:49;8.30;99.90
17381;DHT22;8808;52.478;13.378;2022-09-21T04:25:16;8.30;99.90
17381;DHT22;8808;52.478;13.378;2022-09-21T04:27:44;8.40;99.90
17381;DHT22;8808;52.478;13.378;2022-09-21T04:30:13;8.50;99.90
17381;DHT22;8808;52.478;13.378;2022-09-21T04:32:40;8.40;99.90
17381;DHT22;8808;52.478;13.378;2022-09-21T04:35:08;8.30;99.90
17381;DHT22;8808;52.478;13.378;2022-09-21T04:37:35;8.30;99.90
17381;DHT22;8808;52.478;13.378;2022-09-21T04:40:03;8.30;99.90
17381;DHT22;8808;52.478;13.378;2022-09-21T04:42:30;8.40;99.90
17381;DHT22;8808;52.478;13.378;2022-09-21T04:44:58;8.60;99.90
17381;DHT22;8808;52.478;13.378;2022-09-21T04:47:25;8.60;99.90
17381;DHT22;8808;52.478;13.378;2022-09-21T04:49:52;8.60;99.90
17381;DHT22;8808;52.478;13.378;2022-09-21T04:52:19;8.60;99.90
17381;DHT22;8808;52.478;13.378;2022-09-21T04:54:46;8.70;99.90
17381;DHT22;8808;52.478;13.378;2022-09-21T04:57:13;8.80;99.90
17381;DHT22;8808;52.478;13.378;2022-09-21T04:59:40;8.80;99.90
17381;DHT22;8808;52.478;13.378;2022-09-21T05:02:09;8.70;99.90
17381;DHT22;8808;52.478;13.378;2022-09-21T05:04:36;8.70;99.90
17381;DHT22;8808;52.478;13.378;2022-09-21T05:07:03;8.80;99.90
17381;DHT22;8808;52.478;13.378;2022-09-21T05:09:29;8.80;99.90
17381;DHT22;8808;52.478;13.378;2022-09-21T05:12:14;8.80;99.90
17381;DHT22;8808;52.478;13.378;2022-09-21T05:14:41;8.80;99.90
17381;DHT22;8808;52.478;13.378;2022-09-21T05:17:11;8.90;99.90
17381;DHT22;8808;52.478;13.378;2022-09-21T05:19:38;8.90;99.90
17381;DHT22;8808;52.478;13.378;2022-09-21T05:22:05;8.90;99.90
17381;DHT22;8808;52.478;13.378;2022-09-21T05:24:32;8.90;99.90
17381;DHT22;8808;52.478;13.378;2022-09-21T05:26:59;9.00;99.90
17381;DHT22;8808;52.478;13.378;2022-09-21T05:29:26;9.00;99.90
17381;DHT22;8808;52.478;13.378;2022-09-21T05:31:58;9.10;99.90
17381;DHT22;8808;52.478;13.378;2022-09-21T05:34:35;9.00;99.90
17381;DHT22;8808;52.478;13.378;2022-09-21T05:37:10;9.10;99.90
17381;DHT22;8808;52.478;13.378;2022-09-21T05:39:40;9.00;99.90
17381;DHT22;8808;52.478;13.378;2022-09-21T05:42:08;9.00;99.90
17381;DHT22;8808;52.478;13.378;2022-09-21T05:44:36;9.10;99.90
17381;DHT22;8808;52.478;13.378;2022-09-21T05:47:08;9.20;99.90
17381;DHT22;8808;52.478;13.378;2022-09-21T05:49:48;9.10;99.90
17381;DHT22;8808;52.478;13.378;2022-09-21T05:52:23;9.10;99.90
17381;DHT22;8808;52.478;13.378;2022-09-21T05:55:01;9.10;99.90
17381;DHT22;8808;52.478;13.378;2022-09-21T05:57:39;9.30;99.90
17381;DHT22;8808;52.478;13.378;2022-09-21T06:00:13;9.30;99.90
17381;DHT22;8808;52.478;13.378;2022-09-21T06:03:03;9.40;99.90
17381;DHT22;8808;52.478;13.378;2022-09-21T06:05:35;9.50;99.90
17381;DHT22;8808;52.478;13.378;2022-09-21T06:08:01;9.50;99.90
17381;DHT22;8808;52.478;13.378;2022-09-21T06:10:32;9.60;99.90
17381;DHT22;8808;52.478;13.378;2022-09-21T06:13:00;9.70;99.90
17381;DHT22;8808;52.478;13.378;2022-09-21T06:15:26;9.80;99.90
17381;DHT22;8808;52.478;13.378;2022-09-21T06:17:53;9.70;99.90
17381;DHT22;8808;52.478;13.378;2022-09-21T06:20:20;9.70;99.90
17381;DHT22;8808;52.478;13.378;2022-09-21T06:22:49;9.80;99.90
17381;DHT22;8808;52.478;13.378;2022-09-21T06:25:16;9.90;99.90
17381;DHT22;8808;52.478;13.378;2022-09-21T06:27:43;9.90;99.90
17381;DHT22;8808;52.478;13.378;2022-09-21T06:30:11;9.90;99.90
17381;DHT22;8808;52.478;13.378;2022-09-21T06:32:37;10.00;99.90
17381;DHT22;8808;52.478;13.378;2022-09-21T06:35:05;10.10;99.90
17381;DHT22;8808;52.478;13.378;2022-09-21T06:37:32;10.10;99.90
17381;DHT22;8808;52.478;13.378;2022-09-21T06:40:00;10.10;99.90
17381;DHT22;8808;52.478;13.378;2022-09-21T06:42:27;10.20;99.90
17381;DHT22;8808;52.478;13.378;2022-09-21T06:44:54;10.20;99.90
17381;DHT22;8808;52.478;13.378;2022-09-21T06:47:21;10.40;99.90
17381;DHT22;8808;52.478;13.378;2022-09-21T06:49:47;10.40;99.90
17381;DHT22;8808;52.478;13.378;2022-09-21T06:52:14;10.40;99.90
17381;DHT22;8808;52.478;13.378;2022-09-21T06:54:41;10.50;99.90
17381;DHT22;8808;52.478;13.378;2022-09-21T06:57:10;10.50;99.90
17381;DHT22;8808;52.478;13.378;2022-09-21T06:59:37;10.60;99.90
17381;DHT22;8808;52.478;13.378;2022-09-21T07:02:03;10.60;99.90
17381;DHT22;8808;52.478;13.378;2022-09-21T07:04:30;10.70;99.90
17381;DHT22;8808;52.478;13.378;2022-09-21T07:06:57;10.70;99.90
17381;DHT22;8808;52.478;13.378;2022-09-21T07:09:24;10.80;99.90
17381;DHT22;8808;52.478;13.378;2022-09-21T07:11:50;10.90;99.90
17381;DHT22;8808;52.478;13.378;2022-09-21T07:14:20;11.00;99.90
17381;DHT22;8808;52.478;13.378;2022-09-21T07:16:47;11.10;99.90
17381;DHT22;8808;52.478;13.378;2022-09-21T07:19:15;11.10;99.90
17381;DHT22;8808;52.478;13.378;2022-09-21T07:21:41;11.20;99.90
17381;DHT22;8808;52.478;13.378;2022-09-21T07:24:08;11.10;99.90
17381;DHT22;8808;52.478;13.378;2022-09-21T07:26:35;11.10;99.90
17381;DHT22;8808;52.478;13.378;2022-09-21T07:29:02;11.10;99.90
17381;DHT22;8808;52.478;13.378;2022-09-21T07:31:30;11.20;99.90
17381;DHT22;8808;52.478;13.378;2022-09-21T07:33:57;11.10;99.90
17381;DHT22;8808;52.478;13.378;2022-09-21T07:36:24;11.20;99.90
17381;DHT22;8808;52.478;13.378;2022-09-21T07:38:52;11.50;99.90
17381;DHT22;8808;52.478;13.378;2022-09-21T07:41:19;11.40;99.90
17381;DHT22;8808;52.478;13.378;2022-09-21T07:43:46;11.40;99.90
17381;DHT22;8808;52.478;13.378;2022-09-21T07:46:13;11.60;99.90
17381;DHT22;8808;52.478;13.378;2022-09-21T07:48:42;11.80;99.90
17381;DHT22;8808;52.478;13.378;2022-09-21T07:51:10;12.00;99.90
17381;DHT22;8808;52.478;13.378;2022-09-21T07:53:39;12.10;99.90
17381;DHT22;8808;52.478;13.378;2022-09-21T07:56:09;12.20;99.90
17381;DHT22;8808;52.478;13.378;2022-09-21T07:58:36;12.20;99.90
17381;DHT22;8808;52.478;13.378;2022-09-21T08:01:21;12.00;99.90
17381;DHT22;8808;52.478;13.378;2022-09-21T08:03:50;12.10;99.90
17381;DHT22;8808;52.478;13.378;2022-09-21T08:06:17;12.30;99.90
17381;DHT22;8808;52.478;13.378;2022-09-21T08:08:44;12.30;99.90
17381;DHT22;8808;52.478;13.378;2022-09-21T08:11:13;12.30;99.90
17381;DHT22;8808;52.478;13.378;2022-09-21T08:13:40;12.30;99.90
17381;DHT22;8808;52.478;13.378;2022-09-21T08:16:08;12.40;99.90
17381;DHT22;8808;52.478;13.378;2022-09-21T08:18:36;12.40;99.90
17381;DHT22;8808;52.478;13.378;2022-09-21T08:21:05;12.30;99.90
17381;DHT22;8808;52.478;13.378;2022-09-21T08:23:32;12.30;99.90
17381;DHT22;8808;52.478;13.378;2022-09-21T08:25:59;12.40;99.90
17381;DHT22;8808;52.478;13.378;2022-09-21T08:28:26;12.50;99.90
17381;DHT22;8808;52.478;13.378;2022-09-21T08:30:53;12.50;99.90
17381;DHT22;8808;52.478;13.378;2022-09-21T08:33:20;12.60;99.90
17381;DHT22;8808;52.478;13.378;2022-09-21T08:35:51;12.50;99.90
17381;DHT22;8808;52.478;13.378;2022-09-21T08:38:20;12.50;99.90
17381;DHT22;8808;52.478;13.378;2022-09-21T08:40:47;12.60;99.90
17381;DHT22;8808;52.478;13.378;2022-09-21T08:43:18;12.60;99.90
17381;DHT22;8808;52.478;13.378;2022-09-21T08:45:49;12.70;99.90
17381;DHT22;8808;52.478;13.378;2022-09-21T08:48:20;12.70;99.90
17381;DHT22;8808;52.478;13.378;2022-09-21T08:50:51;12.70;99.90
17381;DHT22;8808;52.478;13.378;2022-09-21T08:53:22;12.70;99.90
17381;DHT22;8808;52.478;13.378;2022-09-21T08:55:54;12.80;99.90
17381;DHT22;8808;52.478;13.378;2022-09-21T08:58:23;13.00;99.90
17381;DHT22;8808;52.478;13.378;2022-09-21T09:01:02;13.00;99.90
17381;DHT22;8808;52.478;13.378;2022-09-21T09:03:52;13.10;99.90
17381;DHT22;8808;52.478;13.378;2022-09-21T09:06:30;13.20;99.90
17381;DHT22;8808;52.478;13.378;2022-09-21T09:09:15;13.20;99.90
17381;DHT22;8808;52.478;13.378;2022-09-21T09:11:53;13.30;99.90
17381;DHT22;8808;52.478;13.378;2022-09-21T09:17:40;13.50;99.90
17381;DHT22;8808;52.478;13.378;2022-09-21T09:20:13;13.70;99.90
17381;DHT22;8808;52.478;13.378;2022-09-21T09:22:46;13.70;99.90
17381;DHT22;8808;52.478;13.378;2022-09-21T09:25:19;13.80;99.90
17381;DHT22;8808;52.478;13.378;2022-09-21T09:27:49;13.80;99.90
17381;DHT22;8808;52.478;13.378;2022-09-21T09:30:19;13.90;99.90
17381;DHT22;8808;52.478;13.378;2022-09-21T09:32:53;13.90;99.90
17381;DHT22;8808;52.478;13.378;2022-09-21T09:35:26;14.00;99.90
17381;DHT22;8808;52.478;13.378;2022-09-21T09:37:57;14.00;99.90
17381;DHT22;8808;52.478;13.378;2022-09-21T09:40:39;14.00;99.90
17381;DHT22;8808;52.478;13.378;2022-09-21T09:43:17;14.00;99.90
17381;DHT22;8808;52.478;13.378;2022-09-21T09:45:55;14.00;99.90
17381;DHT22;8808;52.478;13.378;2022-09-21T09:48:34;14.20;99.90
17381;DHT22;8808;52.478;13.378;2022-09-21T09:51:03;14.30;99.90
17381;DHT22;8808;52.478;13.378;2022-09-21T09:53:30;14.40;99.90
17381;DHT22;8808;52.478;13.378;2022-09-21T09:56:00;14.50;99.90
17381;DHT22;8808;52.478;13.378;2022-09-21T09:58:34;14.70;99.90
17381;DHT22;8808;52.478;13.378;2022-09-21T10:01:03;14.80;99.90
17381;DHT22;8808;52.478;13.378;2022-09-21T10:03:30;14.90;99.90
17381;DHT22;8808;52.478;13.378;2022-09-21T10:05:57;15.10;99.90
17381;DHT22;8808;52.478;13.378;2022-09-21T10:08:30;15.20;99.90
17381;DHT22;8808;52.478;13.378;2022-09-21T10:10:58;15.30;99.90
17381;DHT22;8808;52.478;13.378;2022-09-21T10:13:28;15.50;99.90
17381;DHT22;8808;52.478;13.378;2022-09-21T10:15:57;15.50;99.90
17381;DHT22;8808;52.478;13.378;2022-09-21T10:18:27;15.80;99.90
17381;DHT22;8808;52.478;13.378;2022-09-21T10:20:58;16.00;99.90
17381;DHT22;8808;52.478;13.378;2022-09-21T10:23:26;16.00;99.90
17381;DHT22;8808;52.478;13.378;2022-09-21T10:25:56;15.80;99.90
17381;DHT22;8808;52.478;13.378;2022-09-21T10:28:25;15.50;99.90
17381;DHT22;8808;52.478;13.378;2022-09-21T10:31:08;15.30;99.90
17381;DHT22;8808;52.478;13.378;2022-09-21T10:33:47;15.00;99.90
17381;DHT22;8808;52.478;13.378;2022-09-21T10:36:30;15.10;99.90
17381;DHT22;8808;52.478;13.378;2022-09-21T10:39:11;15.60;99.90
17381;DHT22;8808;52.478;13.378;2022-09-21T10:41:38;16.10;99.90
17381;DHT22;8808;52.478;13.378;2022-09-21T10:44:14;16.10;99.90
17381;DHT22;8808;52.478;13.378;2022-09-21T10:46:42;16.30;99.90
17381;DHT22;8808;52.478;13.378;2022-09-21T10:49:19;16.40;99.90
17381;DHT22;8808;52.478;13.378;2022-09-21T10:51:49;16.40;99.90
17381;DHT22;8808;52.478;13.378;2022-09-21T10:54:22;16.50;99.90
17381;DHT22;8808;52.478;13.378;2022-09-21T10:56:53;16.20;99.90
17381;DHT22;8808;52.478;13.378;2022-09-21T10:59:25;16.20;99.90
17381;DHT22;8808;52.478;13.378;2022-09-21T11:01:54;16.20;99.90
17381;DHT22;8808;52.478;13.378;2022-09-21T11:04:35;16.60;99.90
17381;DHT22;8808;52.478;13.378;2022-09-21T11:07:10;16.90;99.90
17381;DHT22;8808;52.478;13.378;2022-09-21T11:09:42;17.00;99.90
17381;DHT22;8808;52.478;13.378;2022-09-21T11:12:25;16.60;99.90
17381;DHT22;8808;52.478;13.378;2022-09-21T11:14:59;16.60;99.90
17381;DHT22;8808;52.478;13.378;2022-09-21T11:20:08;17.20;99.90
17381;DHT22;8808;52.478;13.378;2022-09-21T11:22:42;17.50;99.90
17381;DHT22;8808;52.478;13.378;2022-09-21T11:25:23;17.40;99.90
17381;DHT22;8808;52.478;13.378;2022-09-21T11:27:56;17.70;99.90
17381;DHT22;8808;52.478;13.378;2022-09-21T11:30:31;17.70;99.90
17381;DHT22;8808;52.478;13.378;2022-09-21T11:33:10;17.40;99.90
17381;DHT22;8808;52.478;13.378;2022-09-21T11:35:45;17.00;99.90
17381;DHT22;8808;52.478;13.378;2022-09-21T11:38:24;16.80;99.90
17381;DHT22;8808;52.478;13.378;2022-09-21T11:41:12;16.60;99.90
17381;DHT22;8808;52.478;13.378;2022-09-21T11:43:54;16.40;99.90
17381;DHT22;8808;52.478;13.378;2022-09-21T11:46:32;16.40;99.90
17381;DHT22;8808;52.478;13.378;2022-09-21T11:49:15;16.50;99.90
17381;DHT22;8808;52.478;13.378;2022-09-21T11:51:54;16.90;99.90
17381;DHT22;8808;52.478;13.378;2022-09-21T11:57:26;17.10;99.90
17381;DHT22;8808;52.478;13.378;2022-09-21T12:00:12;17.40;99.90
17381;DHT22;8808;52.478;13.378;2022-09-21T12:03:04;18.30;99.90
17381;DHT22;8808;52.478;13.378;2022-09-21T12:05:38;17.80;99.90
17381;DHT22;8808;52.478;13.378;2022-09-21T12:08:27;17.30;99.90
17381;DHT22;8808;52.478;13.378;2022-09-21T12:11:02;16.90;99.90
17381;DHT22;8808;52.478;13.378;2022-09-21T12:13:34;16.50;99.90
17381;DHT22;8808;52.478;13.378;2022-09-21T12:16:14;16.40;99.90
17381;DHT22;8808;52.478;13.378;2022-09-21T12:18:49;16.30;99.90
17381;DHT22;8808;52.478;13.378;2022-09-21T12:21:21;16.30;99.90
17381;DHT22;8808;52.478;13.378;2022-09-21T12:23:51;16.40;99.90
17381;DHT22;8808;52.478;13.378;2022-09-21T12:26:22;16.40;99.90
17381;DHT22;8808;52.478;13.378;2022-09-21T12:28:51;16.30;99.90
17381;DHT22;8808;52.478;13.378;2022-09-21T12:31:24;16.30;99.90
17381;DHT22;8808;52.478;13.378;2022-09-21T12:33:55;16.30;99.90
17381;DHT22;8808;52.478;13.378;2022-09-21T12:36:28;16.60;99.90
17381;DHT22;8808;52.478;13.378;2022-09-21T12:39:00;16.70;99.90
17381;DHT22;8808;52.478;13.378;2022-09-21T12:41:35;16.80;99.90
17381;DHT22;8808;52.478;13.378;2022-09-21T12:44:11;16.90;99.90
17381;DHT22;8808;52.478;13.378;2022-09-21T12:46:44;16.80;99.90
17381;DHT22;8808;52.478;13.378;2022-09-21T12:49:18;16.50;99.90
17381;DHT22;8808;52.478;13.378;2022-09-21T12:51:49;16.30;99.90
17381;DHT22;8808;52.478;13.378;2022-09-21T12:54:24;16.20;99.90
17381;DHT22;8808;52.478;13.378;2022-09-21T12:56:57;16.30;99.90
17381;DHT22;8808;52.478;13.378;2022-09-21T12:59:32;16.20;99.90
17381;DHT22;8808;52.478;13.378;2022-09-21T13:02:11;16.20;99.90
17381;DHT22;8808;52.478;13.378;2022-09-21T13:05:05;16.20;99.90
17381;DHT22;8808;52.478;13.378;2022-09-21T13:08:01;16.10;99.90
17381;DHT22;8808;52.478;13.378;2022-09-21T13:10:40;16.20;99.90
17381;DHT22;8808;52.478;13.378;2022-09-21T13:13:18;16.20;99.90
17381;DHT22;8808;52.478;13.378;2022-09-21T13:15:48;17.30;99.90
17381;DHT22;8808;52.478;13.378;2022-09-21T13:18:18;17.60;99.90
17381;DHT22;8808;52.478;13.378;2022-09-21T13:20:48;16.90;99.90
17381;DHT22;8808;52.478;13.378;2022-09-21T13:23:19;16.70;99.90
17381;DHT22;8808;52.478;13.378;2022-09-21T13:25:47;16.30;99.90
17381;DHT22;8808;52.478;13.378;2022-09-21T13:28:19;16.10;99.90
17381;DHT22;8808;52.478;13.378;2022-09-21T13:30:49;16.00;99.90
17381;DHT22;8808;52.478;13.378;2022-09-21T13:33:39;15.90;99.90
17381;DHT22;8808;52.478;13.378;2022-09-21T13:36:29;15.90;99.90
17381;DHT22;8808;52.478;13.378;2022-09-21T13:39:03;15.90;99.90
17381;DHT22;8808;52.478;13.378;2022-09-21T13:41:30;16.20;99.90
17381;DHT22;8808;52.478;13.378;2022-09-21T13:44:02;16.20;99.90
17381;DHT22;8808;52.478;13.378;2022-09-21T13:46:49;16.30;99.90
17381;DHT22;8808;52.478;13.378;2022-09-21T13:49:33;16.10;99.90
17381;DHT22;8808;52.478;13.378;2022-09-21T13:52:07;16.00;99.90
17381;DHT22;8808;52.478;13.378;2022-09-21T13:54:48;15.90;99.90
17381;DHT22;8808;52.478;13.378;2022-09-21T13:57:18;15.80;99.90
17381;DHT22;8808;52.478;13.378;2022-09-21T13:59:47;15.80;99.90
17381;DHT22;8808;52.478;13.378;2022-09-21T14:02:30;15.80;99.90
17381;DHT22;8808;52.478;13.378;2022-09-21T14:05:03;15.90;99.90
17381;DHT22;8808;52.478;13.378;2022-09-21T14:07:34;15.80;99.90
17381;DHT22;8808;52.478;13.378;2022-09-21T14:10:03;15.90;99.90
17381;DHT22;8808;52.478;13.378;2022-09-21T14:12:37;15.90;99.90
17381;DHT22;8808;52.478;13.378;2022-09-21T14:15:31;15.90;99.90
17381;DHT22;8808;52.478;13.378;2022-09-21T14:18:20;15.90;99.90
17381;DHT22;8808;52.478;13.378;2022-09-21T14:21:14;16.00;99.90
17381;DHT22;8808;52.478;13.378;2022-09-21T14:27:03;16.10;99.90
17381;DHT22;8808;52.478;13.378;2022-09-21T14:29:40;16.10;99.90
17381;DHT22;8808;52.478;13.378;2022-09-21T14:32:14;16.10;99.90
17381;DHT22;8808;52.478;13.378;2022-09-21T14:34:45;16.10;99.90
17381;DHT22;8808;52.478;13.378;2022-09-21T14:37:21;16.00;99.90
17381;DHT22;8808;52.478;13.378;2022-09-21T14:39:52;15.90;99.90
17381;DHT22;8808;52.478;13.378;2022-09-21T14:42:23;16.10;99.90
17381;DHT22;8808;52.478;13.378;2022-09-21T14:44:51;16.10;99.90
17381;DHT22;8808;52.478;13.378;2022-09-21T14:47:32;16.00;99.90
17381;DHT22;8808;52.478;13.378;2022-09-21T14:53:22;16.10;99.90
17381;DHT22;8808;52.478;13.378;2022-09-21T14:56:14;16.10;99.90
17381;DHT22;8808;52.478;13.378;2022-09-21T14:59:05;16.00;99.90
17381;DHT22;8808;52.478;13.378;2022-09-21T15:01:36;15.80;99.90
17381;DHT22;8808;52.478;13.378;2022-09-21T15:07:13;16.60;99.90
17381;DHT22;8808;52.478;13.378;2022-09-21T15:10:19;16.00;99.90
17381;DHT22;8808;52.478;13.378;2022-09-21T15:13:13;15.80;99.90
17381;DHT22;8808;52.478;13.378;2022-09-21T15:15:55;16.30;99.90
17381;DHT22;8808;52.478;13.378;2022-09-21T15:18:23;17.70;99.90
17381;DHT22;8808;52.478;13.378;2022-09-21T15:20:55;16.50;99.90
17381;DHT22;8808;52.478;13.378;2022-09-21T15:23:27;15.80;99.90
17381;DHT22;8808;52.478;13.378;2022-09-21T15:25:57;15.70;99.90
17381;DHT22;8808;52.478;13.378;2022-09-21T15:28:28;15.70;99.90
17381;DHT22;8808;52.478;13.378;2022-09-21T15:30:57;15.70;99.90
17381;DHT22;8808;52.478;13.378;2022-09-21T15:33:24;15.70;99.90
17381;DHT22;8808;52.478;13.378;2022-09-21T15:35:51;15.70;99.90
17381;DHT22;8808;52.478;13.378;2022-09-21T15:38:29;15.60;99.90
17381;DHT22;8808;52.478;13.378;2022-09-21T15:40:57;15.50;99.90
17381;DHT22;8808;52.478;13.378;2022-09-21T15:43:23;15.60;99.90
17381;DHT22;8808;52.478;13.378;2022-09-21T15:45:53;15.50;99.90
17381;DHT22;8808;52.478;13.378;2022-09-21T15:48:22;15.30;99.90
17381;DHT22;8808;52.478;13.378;2022-09-21T15:50:53;15.30;99.90
17381;DHT22;8808;52.478;13.378;2022-09-21T15:53:24;15.20;99.90
17381;DHT22;8808;52.478;13.378;2022-09-21T15:55:54;15.30;99.90
17381;DHT22;8808;52.478;13.378;2022-09-21T15:58:29;15.40;99.90
17381;DHT22;8808;52.478;13.378;2022-09-21T16:01:03;15.40;99.90
17381;DHT22;8808;52.478;13.378;2022-09-21T16:03:36;15.30;99.90
17381;DHT22;8808;52.478;13.378;2022-09-21T16:06:22;15.30;99.90
17381;DHT22;8808;52.478;13.378;2022-09-21T16:08:50;15.20;99.90
17381;DHT22;8808;52.478;13.378;2022-09-21T16:11:18;15.10;99.90
17381;DHT22;8808;52.478;13.378;2022-09-21T16:13:57;15.10;99.90
17381;DHT22;8808;52.478;13.378;2022-09-21T16:17:19;15.10;99.90
17381;DHT22;8808;52.478;13.378;2022-09-21T16:22:50;14.90;99.90
17381;DHT22;8808;52.478;13.378;2022-09-21T16:25:30;14.90;99.90
17381;DHT22;8808;52.478;13.378;2022-09-21T16:28:04;14.80;99.90
17381;DHT22;8808;52.478;13.378;2022-09-21T16:30:42;14.70;99.90
17381;DHT22;8808;52.478;13.378;2022-09-21T16:33:36;14.70;99.90
17381;DHT22;8808;52.478;13.378;2022-09-21T16:36:40;14.60;99.90
17381;DHT22;8808;52.478;13.378;2022-09-21T16:39:13;14.70;99.90
17381;DHT22;8808;52.478;13.378;2022-09-21T16:41:43;14.60;99.90
17381;DHT22;8808;52.478;13.378;2022-09-21T16:44:14;14.60;99.90
17381;DHT22;8808;52.478;13.378;2022-09-21T16:46:44;14.50;99.90
17381;DHT22;8808;52.478;13.378;2022-09-21T16:49:11;14.40;99.90
17381;DHT22;8808;52.478;13.378;2022-09-21T16:51:41;14.40;99.90
17381;DHT22;8808;52.478;13.378;2022-09-21T16:54:08;14.50;99.90
17381;DHT22;8808;52.478;13.378;2022-09-21T16:56:36;14.40;99.90
17381;DHT22;8808;52.478;13.378;2022-09-21T16:59:11;14.40;99.90
17381;DHT22;8808;52.478;13.378;2022-09-21T17:01:38;14.20;99.90
17381;DHT22;8808;52.478;13.378;2022-09-21T17:04:05;14.20;99.90
17381;DHT22;8808;52.478;13.378;2022-09-21T17:06:32;14.20;99.90
17381;DHT22;8808;52.478;13.378;2022-09-21T17:09:21;14.10;99.90
17381;DHT22;8808;52.478;13.378;2022-09-21T17:11:50;14.10;99.90
17381;DHT22;8808;52.478;13.378;2022-09-21T17:14:18;14.00;99.90
17381;DHT22;8808;52.478;13.378;2022-09-21T17:16:55;14.00;99.90
17381;DHT22;8808;52.478;13.378;2022-09-21T17:19:23;13.70;99.90
17381;DHT22;8808;52.478;13.378;2022-09-21T17:21:50;13.70;99.90
17381;DHT22;8808;52.478;13.378;2022-09-21T17:24:17;13.80;99.90
17381;DHT22;8808;52.478;13.378;2022-09-21T17:26:44;13.70;99.90